Time;durP1;ratioP1;P1;durP2;ratioP2;P2;SDS_P1;SDS_P2;PMS_P1;PMS_P2;Temp;Humidity;BMP_temperature;BMP_pressure;BME280_temperature;BME280_humidity;BME280_pressure;Samples;Min_cycle;Max_cycle;Signal;HPM_P1;HPM_P2
2023/11/08 00:01:00;;;;;;;;;;;;;;;;;;5072007;28;20380;-69
2023/11/08 00:03:26;;;;;;;;;;;;;;;;;;5071024;28;19912;-68
2023/11/08 00:05:52;;;;;;;;;;;;;;;;;;5090945;28;19912;-69
2023/11/08 00:08:18;;;;;;;;;;;;;;;;;;5085826;28;19977;-69
2023/11/08 00:10:44;;;;;;;;;;;;;;;;;;5079102;28;20352;-69
2023/11/08 00:13:10;;;;;;;;;;;;;;;;;;5081594;28;19928;-69
2023/11/08 00:15:36;;;;;;;;;;;;;;;;;;5085571;28;19955;-69
2023/11/08 00:18:02;;;;;;;;;;;;;;;;;;5078239;28;19951;-69
2023/11/08 00:20:28;;;;;;;;;;;;;;;;;;5073551;28;19916;-69
2023/11/08 00:22:54;;;;;;;;;;;;;;;;;;5081022;28;19916;-69
2023/11/08 00:25:20;;;;;;;;;;;;;;;;;;5088641;28;19920;-69
2023/11/08 00:27:46;;;;;;;;;;;;;;;;;;5082216;28;19920;-69
2023/11/08 00:30:12;;;;;;;;;;;;;;;;;;5087534;28;19995;-69
2023/11/08 00:32:38;;;;;;;;;;;;;;;;;;5091376;28;19923;-69
2023/11/08 00:35:04;;;;;;;;;;;;;;;;;;5082664;28;20712;-69
2023/11/08 00:37:30;;;;;;;;;;;;;;;;;;5059197;28;19917;-69
2023/11/08 00:39:57;;;;;;;;;;;;;;;;;;5074339;28;20003;-69
2023/11/08 00:42:23;;;;;;;;;;;;;;;;;;5088603;28;19916;-69
2023/11/08 00:44:49;;;;;;;;;;;;;;;;;;5081641;28;19917;-69
2023/11/08 00:47:15;;;;;;;;;;;;;;;;;;5068529;28;20291;-69
2023/11/08 00:49:41;;;;;;;;;;;;;;;;;;5069834;28;19916;-69
2023/11/08 00:52:09;;;;;;;;;;;;;;;;;;5078339;28;19913;-69
2023/11/08 00:54:35;;;;;;;;;;;;;;;;;;5072000;28;19920;-69
2023/11/08 00:57:01;;;;;;;;;;;;;;;;;;5078334;28;19922;-69
2023/11/08 00:59:26;;;;;;;;;;;;;;;;;;5073213;28;20364;-69
2023/11/08 01:01:53;;;;;;;;;;;;;;;;;;5067633;28;20004;-69
2023/11/08 01:04:19;;;;;;;;;;;;;;;;;;5072414;28;19924;-69
2023/11/08 01:06:45;;;;;;;;;;;;;;;;;;5072024;28;19916;-69
2023/11/08 01:09:11;;;;;;;;;;;;;;;;;;5079414;28;19912;-70
2023/11/08 01:11:37;;;;;;;;;;;;;;;;;;5072611;28;20356;-69
2023/11/08 01:14:04;;;;;;;;;;;;;;;;;;5062693;28;19920;-70
2023/11/08 01:16:30;;;;;;;;;;;;;;;;;;5076241;28;19917;-69
2023/11/08 01:18:56;;;;;;;;;;;;;;;;;;5078208;28;20268;-69
2023/11/08 01:21:22;;;;;;;;;;;;;;;;;;5055361;28;20019;-69
2023/11/08 01:23:48;;;;;;;;;;;;;;;;;;5069186;28;20372;-69
2023/11/08 01:26:14;;;;;;;;;;;;;;;;;;5071549;28;20299;-70
2023/11/08 01:28:40;;;;;;;;;;;;;;;;;;5087556;28;19920;-69
2023/11/08 01:31:07;;;;;;;;;;;;;;;;;;5057600;28;19943;-69
2023/11/08 01:33:32;;;;;;;;;;;;;;;;;;5072314;28;20428;-68
2023/11/08 01:35:58;;;;;;;;;;;;;;;;;;5060560;28;20016;-69
2023/11/08 01:38:24;;;;;;;;;;;;;;;;;;5057875;28;19919;-69
2023/11/08 01:40:51;;;;;;;;;;;;;;;;;;5074691;28;19913;-69
2023/11/08 01:43:17;;;;;;;;;;;;;;;;;;5058916;28;19912;-69
2023/11/08 01:45:43;;;;;;;;;;;;;;;;;;5061201;28;20467;-69
2023/11/08 01:48:09;;;;;;;;;;;;;;;;;;5075347;28;20007;-69
2023/11/08 01:50:34;;;;;;;;;;;;;;;;;;5079673;28;20257;-71
2023/11/08 01:53:00;;;;;;;;;;;;;;;;;;5072753;28;19912;-69
2023/11/08 01:55:26;;;;;;;;;;;;;;;;;;5041337;28;19996;-69
2023/11/08 01:57:52;;;;;;;;;;;;;;;;;;5047145;28;20008;-70
2023/11/08 02:00:18;;;;;;;;;;;;;;;;;;5066451;28;20382;-68
2023/11/08 02:02:44;;;;;;;;;;;;;;;;;;5069616;28;19918;-69
2023/11/08 02:05:10;;;;;;;;;;;;;;;;;;5070881;28;19912;-69
2023/11/08 02:07:36;;;;;;;;;;;;;;;;;;5078827;28;20329;-69
2023/11/08 02:10:03;;;;;;;;;;;;;;;;;;5074633;28;20007;-70
2023/11/08 02:12:32;;;;;;;;;;;;;;;;;;5074096;28;20361;-69
2023/11/08 02:14:58;;;;;;;;;;;;;;;;;;5075479;28;19950;-70
2023/11/08 02:17:24;;;;;;;;;;;;;;;;;;5072307;28;19964;-69
2023/11/08 02:19:50;;;;;;;;;;;;;;;;;;5084769;28;20368;-70
2023/11/08 02:22:16;;;;;;;;;;;;;;;;;;5070267;28;20327;-69
2023/11/08 02:24:42;;;;;;;;;;;;;;;;;;5071977;28;20042;-70
2023/11/08 02:27:07;;;;;;;;;;;;;;;;;;5078558;28;19946;-69
2023/11/08 02:29:34;;;;;;;;;;;;;;;;;;5085274;28;19947;-70
2023/11/08 02:31:59;;;;;;;;;;;;;;;;;;5057295;28;19912;-70
2023/11/08 02:34:25;;;;;;;;;;;;;;;;;;5083118;28;19908;-70
2023/11/08 02:36:53;;;;;;;;;;;;;;;;;;5078891;28;20056;-70
2023/11/08 02:39:19;;;;;;;;;;;;;;;;;;5095629;28;19953;-70
2023/11/08 02:41:45;;;;;;;;;;;;;;;;;;5068319;28;19912;-71
2023/11/08 02:44:11;;;;;;;;;;;;;;;;;;5086827;28;19943;-69
2023/11/08 02:46:37;;;;;;;;;;;;;;;;;;5078690;28;19912;-70
2023/11/08 02:49:04;;;;;;;;;;;;;;;;;;5075190;28;19958;-70
2023/11/08 02:51:29;;;;;;;;;;;;;;;;;;5080141;28;19991;-70
2023/11/08 02:53:56;;;;;;;;;;;;;;;;;;5061081;28;20402;-70
2023/11/08 02:56:24;;;;;;;;;;;;;;;;;;5074879;28;19968;-70
2023/11/08 02:58:50;;;;;;;;;;;;;;;;;;5088394;28;19936;-70
2023/11/08 03:01:16;;;;;;;;;;;;;;;;;;5078193;28;19921;-71
2023/11/08 03:03:42;;;;;;;;;;;;;;;;;;5074371;28;19936;-70
2023/11/08 03:06:08;;;;;;;;;;;;;;;;;;5051820;28;20379;-70
2023/11/08 03:08:34;;;;;;;;;;;;;;;;;;5056334;28;19957;-70
2023/11/08 03:11:00;;;;;;;;;;;;;;;;;;5056208;28;19912;-70
2023/11/08 03:13:26;;;;;;;;;;;;;;;;;;5039722;28;19998;-70
2023/11/08 03:15:51;;;;;;;;;;;;;;;;;;5053616;28;20399;-71
2023/11/08 03:18:18;;;;;;;;;;;;;;;;;;5073540;28;20068;-70
2023/11/08 03:20:44;;;;;;;;;;;;;;;;;;5063147;28;19920;-70
2023/11/08 03:23:10;;;;;;;;;;;;;;;;;;5088068;28;19908;-70
2023/11/08 03:25:37;;;;;;;;;;;;;;;;;;5054452;28;19992;-70
2023/11/08 03:28:04;;;;;;;;;;;;;;;;;;5070779;28;20272;-71
2023/11/08 03:30:30;;;;;;;;;;;;;;;;;;5082321;28;19923;-70
2023/11/08 03:32:57;;;;;;;;;;;;;;;;;;5049675;28;19913;-70
2023/11/08 03:35:23;;;;;;;;;;;;;;;;;;5070707;28;19919;-70
2023/11/08 03:37:49;;;;;;;;;;;;;;;;;;5054383;28;19912;-69
2023/11/08 03:40:15;;;;;;;;;;;;;;;;;;5072928;28;19956;-70
2023/11/08 03:42:41;;;;;;;;;;;;;;;;;;5074069;28;19916;-70
2023/11/08 03:45:07;;;;;;;;;;;;;;;;;;5070997;28;20011;-70
2023/11/08 03:47:33;;;;;;;;;;;;;;;;;;5066622;28;19920;-69
2023/11/08 03:49:59;;;;;;;;;;;;;;;;;;5072882;28;19912;-71
2023/11/08 03:52:26;;;;;;;;;;;;;;;;;;5072435;28;19997;-70
2023/11/08 03:54:52;;;;;;;;;;;;;;;;;;5073606;28;20272;-71
2023/11/08 03:57:19;;;;;;;;;;;;;;;;;;5055835;28;19920;-70
2023/11/08 03:59:45;;;;;;;;;;;;;;;;;;5070652;28;19919;-69
2023/11/08 04:02:11;;;;;;;;;;;;;;;;;;5072674;28;19955;-69
2023/11/08 04:04:37;;;;;;;;;;;;;;;;;;5055609;28;20390;-71
2023/11/08 04:07:03;;;;;;;;;;;;;;;;;;5050713;28;19912;-70
2023/11/08 04:09:29;;;;;;;;;;;;;;;;;;5046270;28;19938;-70
2023/11/08 04:11:55;;;;;;;;;;;;;;;;;;5053982;28;20003;-71
2023/11/08 04:14:21;;;;;;;;;;;;;;;;;;5058672;28;19919;-71
2023/11/08 04:16:47;;;;;;;;;;;;;;;;;;5074388;28;19966;-70
2023/11/08 04:19:13;;;;;;;;;;;;;;;;;;5084435;28;19947;-70
2023/11/08 04:21:39;;;;;;;;;;;;;;;;;;5050989;28;20453;-70
2023/11/08 04:24:05;;;;;;;;;;;;;;;;;;5072562;28;20007;-68
2023/11/08 04:26:32;;;;;;;;;;;;;;;;;;5065382;28;20022;-68
2023/11/08 04:28:58;;;;;;;;;;;;;;;;;;5067476;28;20026;-67
2023/11/08 04:31:24;;;;;;;;;;;;;;;;;;5071391;28;20007;-68
2023/11/08 04:33:51;;;;;;;;;;;;;;;;;;5068992;28;20280;-67
2023/11/08 04:36:17;;;;;;;;;;;;;;;;;;5063114;28;20015;-68
2023/11/08 04:38:44;;;;;;;;;;;;;;;;;;5073720;28;19952;-68
2023/11/08 04:41:10;;;;;;;;;;;;;;;;;;5069852;28;19912;-68
2023/11/08 04:43:36;;;;;;;;;;;;;;;;;;5058143;28;19944;-67
2023/11/08 04:46:02;;;;;;;;;;;;;;;;;;5074207;28;20276;-67
2023/11/08 04:48:28;;;;;;;;;;;;;;;;;;5073944;28;19917;-67
2023/11/08 04:50:54;;;;;;;;;;;;;;;;;;5073454;28;19924;-67
2023/11/08 04:53:20;;;;;;;;;;;;;;;;;;5069962;28;20387;-68
2023/11/08 04:55:46;;;;;;;;;;;;;;;;;;5075681;28;19970;-68
2023/11/08 04:58:12;;;;;;;;;;;;;;;;;;5063530;28;20328;-67
2023/11/08 05:00:37;;;;;;;;;;;;;;;;;;5070447;28;19921;-68
2023/11/08 05:03:04;;;;;;;;;;;;;;;;;;5069778;28;19982;-68
2023/11/08 05:05:29;;;;;;;;;;;;;;;;;;5079951;28;19938;-67
2023/11/08 05:07:55;;;;;;;;;;;;;;;;;;5073169;28;19998;-67
2023/11/08 05:10:21;;;;;;;;;;;;;;;;;;5073681;28;19919;-68
2023/11/08 05:12:48;;;;;;;;;;;;;;;;;;5086651;28;20367;-68
2023/11/08 05:15:13;;;;;;;;;;;;;;;;;;5076208;28;19917;-68
2023/11/08 05:17:42;;;;;;;;;;;;;;;;;;5074100;28;19974;-67
2023/11/08 05:20:08;;;;;;;;;;;;;;;;;;5082670;28;19916;-67
2023/11/08 05:22:33;;;;;;;;;;;;;;;;;;5085022;28;19908;-68
2023/11/08 05:25:00;;;;;;;;;;;;;;;;;;5078243;28;19916;-68
2023/11/08 05:27:26;;;;;;;;;;;;;;;;;;5071906;28;19912;-68
2023/11/08 05:29:53;;;;;;;;;;;;;;;;;;5075039;28;19919;-67
2023/11/08 05:32:21;;;;;;;;;;;;;;;;;;5092324;28;20283;-68
2023/11/08 05:34:47;;;;;;;;;;;;;;;;;;5092286;28;19960;-69
2023/11/08 05:37:12;;;;;;;;;;;;;;;;;;5070364;28;19917;-69
2023/11/08 05:39:40;;;;;;;;;;;;;;;;;;5071301;28;20024;-69
2023/11/08 05:42:06;;;;;;;;;;;;;;;;;;5077994;28;19921;-69
2023/11/08 05:44:32;;;;;;;;;;;;;;;;;;5076927;28;20380;-69
2023/11/08 05:46:58;;;;;;;;;;;;;;;;;;5061810;28;19951;-69
2023/11/08 05:49:24;;;;;;;;;;;;;;;;;;5081020;28;19913;-70
2023/11/08 05:51:50;;;;;;;;;;;;;;;;;;5074077;28;19970;-69
2023/11/08 05:54:16;;;;;;;;;;;;;;;;;;5057265;28;19916;-69
2023/11/08 05:56:42;;;;;;;;;;;;;;;;;;5063475;28;20458;-70
2023/11/08 05:59:08;;;;;;;;;;;;;;;;;;5087294;28;19956;-69
2023/11/08 06:01:34;;;;;;;;;;;;;;;;;;5083935;28;19972;-68
2023/11/08 06:04:00;;;;;;;;;;;;;;;;;;5087067;28;20009;-69
2023/11/08 06:06:27;;;;;;;;;;;;;;;;;;5066270;28;19912;-69
2023/11/08 06:08:53;;;;;;;;;;;;;;;;;;5068473;28;19912;-70
2023/11/08 06:11:19;;;;;;;;;;;;;;;;;;5087194;28;20335;-70
2023/11/08 06:13:45;;;;;;;;;;;;;;;;;;5075266;28;19912;-69
2023/11/08 06:16:11;;;;;;;;;;;;;;;;;;5056072;28;20009;-69
2023/11/08 06:18:36;;;;;;;;;;;;;;;;;;5083274;28;20061;-74
2023/11/08 06:21:03;;;;;;;;;;;;;;;;;;5077089;28;19923;-75
2023/11/08 06:23:30;;;;;;;;;;;;;;;;;;5074548;28;19916;-73
2023/11/08 06:25:56;;;;;;;;;;;;;;;;;;5094705;28;19928;-74
2023/11/08 06:28:22;;;;;;;;;;;;;;;;;;5063066;28;19912;-74
2023/11/08 06:30:48;;;;;;;;;;;;;;;;;;5093889;28;19958;-72
2023/11/08 06:33:14;;;;;;;;;;;;;;;;;;5085353;28;19913;-72
2023/11/08 06:35:41;;;;;;;;;;;;;;;;;;5079087;28;19920;-75
2023/11/08 06:38:07;;;;;;;;;;;;;;;;;;5071688;28;20294;-73
2023/11/08 06:40:33;;;;;;;;;;;;;;;;;;5100135;28;20010;-74
2023/11/08 06:42:58;;;;;;;;;;;;;;;;;;5075412;28;20007;-68
2023/11/08 06:45:24;;;;;;;;;;;;;;;;;;5075001;28;20264;-68
2023/11/08 06:47:51;;;;;;;;;;;;;;;;;;5077191;28;19920;-67
2023/11/08 06:50:16;;;;;;;;;;;;;;;;;;5088994;28;19923;-67
2023/11/08 06:52:42;;;;;;;;;;;;;;;;;;5083978;28;19912;-67
2023/11/08 06:55:08;;;;;;;;;;;;;;;;;;5082302;28;20039;-67
2023/11/08 06:57:34;;;;;;;;;;;;;;;;;;5075865;28;19916;-67
2023/11/08 07:00:00;;;;;;;;;;;;;;;;;;5073564;28;20437;-68
2023/11/08 07:02:26;;;;;;;;;;;;;;;;;;5086470;28;19912;-67
2023/11/08 07:04:52;;;;;;;;;;;;;;;;;;5066764;28;19981;-67
2023/11/08 07:07:18;;;;;;;;;;;;;;;;;;5084063;28;19951;-66
2023/11/08 07:09:44;;;;;;;;;;;;;;;;;;5094087;28;20421;-68
2023/11/08 07:12:10;;;;;;;;;;;;;;;;;;5077545;28;19956;-67
2023/11/08 07:14:36;;;;;;;;;;;;;;;;;;5086166;28;19923;-68
2023/11/08 07:17:03;;;;;;;;;;;;;;;;;;5077918;28;19967;-68
2023/11/08 07:19:29;;;;;;;;;;;;;;;;;;5084007;28;19912;-68
2023/11/08 07:21:55;;;;;;;;;;;;;;;;;;5091406;28;19909;-68
2023/11/08 07:24:22;;;;;;;;;;;;;;;;;;5082315;28;19912;-68
2023/11/08 07:26:49;;;;;;;;;;;;;;;;;;5089361;28;19973;-69
2023/11/08 07:29:15;;;;;;;;;;;;;;;;;;5071852;28;19916;-68
2023/11/08 07:31:41;;;;;;;;;;;;;;;;;;5083948;28;20037;-68
2023/11/08 07:34:07;;;;;;;;;;;;;;;;;;5092919;28;19915;-68
2023/11/08 07:36:33;;;;;;;;;;;;;;;;;;5080373;28;19947;-66
2023/11/08 07:39:04;;;;;;;;;;;;;;;;;;5075548;28;20302;-66
2023/11/08 07:41:31;;;;;;;;;;;;;;;;;;5077355;28;19913;-66
2023/11/08 07:43:56;;;;;;;;;;;;;;;;;;5092879;28;19908;-67
2023/11/08 07:46:24;;;;;;;;;;;;;;;;;;5053795;28;19967;-67
2023/11/08 07:48:50;;;;;;;;;;;;;;;;;;5069150;28;19981;-67
2023/11/08 07:51:16;;;;;;;;;;;;;;;;;;5085986;28;19908;-67
2023/11/08 07:53:42;;;;;;;;;;;;;;;;;;5083680;28;19959;-67
2023/11/08 07:56:08;;;;;;;;;;;;;;;;;;5070460;28;20371;-67
2023/11/08 07:58:34;;;;;;;;;;;;;;;;;;5091339;28;19912;-67
2023/11/08 08:01:00;;;;;;;;;;;;;;;;;;5061818;28;19913;-67
2023/11/08 08:03:26;;;;;;;;;;;;;;;;;;5085651;28;19922;-67
2023/11/08 08:05:53;;;;;;;;;;;;;;;;;;5087735;28;19912;-67
2023/11/08 08:08:20;;;;;;;;;;;;;;;;;;5092906;28;20336;-68
2023/11/08 08:10:45;;;;;;;;;;;;;;;;;;5072117;28;19966;-67
2023/11/08 08:13:12;;;;;;;;;;;;;;;;;;5080299;28;20067;-68
2023/11/08 08:15:38;;;;;;;;;;;;;;;;;;5091643;28;19943;-68
2023/11/08 08:18:04;;;;;;;;;;;;;;;;;;5061124;28;19994;-68
2023/11/08 08:20:29;;;;;;;;;;;;;;;;;;5085435;28;19916;-67
2023/11/08 08:22:56;;;;;;;;;;;;;;;;;;5080825;28;19912;-67
2023/11/08 08:25:22;;;;;;;;;;;;;;;;;;5075770;28;19950;-68
2023/11/08 08:27:47;;;;;;;;;;;;;;;;;;5092629;28;19912;-68
2023/11/08 08:30:16;;;;;;;;;;;;;;;;;;5092254;28;20322;-68
2023/11/08 08:32:43;;;;;;;;;;;;;;;;;;5079433;28;20382;-68
2023/11/08 08:35:09;;;;;;;;;;;;;;;;;;5073448;28;19923;-70
2023/11/08 08:37:35;;;;;;;;;;;;;;;;;;5087972;28;19926;-68
2023/11/08 08:40:04;;;;;;;;;;;;;;;;;;5086425;28;19912;-68
2023/11/08 08:42:30;;;;;;;;;;;;;;;;;;5079397;28;19912;-68
2023/11/08 08:44:56;;;;;;;;;;;;;;;;;;5086240;28;19915;-68
2023/11/08 08:47:22;;;;;;;;;;;;;;;;;;5090265;28;20360;-68
2023/11/08 08:49:49;;;;;;;;;;;;;;;;;;5081427;28;20291;-68
2023/11/08 08:52:15;;;;;;;;;;;;;;;;;;5065043;28;19958;-68
2023/11/08 08:54:41;;;;;;;;;;;;;;;;;;5085164;28;20323;-69
2023/11/08 08:57:07;;;;;;;;;;;;;;;;;;5068130;28;19974;-68
2023/11/08 08:59:33;;;;;;;;;;;;;;;;;;5085214;28;20019;-68
2023/11/08 09:01:59;;;;;;;;;;;;;;;;;;5080967;28;20384;-68
2023/11/08 09:04:25;;;;;;;;;;;;;;;;;;5079710;28;20090;-68
2023/11/08 09:06:51;;;;;;;;;;;;;;;;;;5078566;28;20356;-67
2023/11/08 09:09:17;;;;;;;;;;;;;;;;;;5091939;28;19914;-66
2023/11/08 09:11:43;;;;;;;;;;;;;;;;;;5078473;28;19973;-68
2023/11/08 09:14:09;;;;;;;;;;;;;;;;;;5078943;28;19916;-67
2023/11/08 09:16:37;;;;;;;;;;;;;;;;;;5076459;28;19959;-68
2023/11/08 09:19:03;;;;;;;;;;;;;;;;;;5083625;28;19908;-68
2023/11/08 09:21:29;;;;;;;;;;;;;;;;;;5079764;28;20491;-68
2023/11/08 09:23:56;;;;;;;;;;;;;;;;;;5089323;28;20351;-68
2023/11/08 09:26:22;;;;;;;;;;;;;;;;;;5079212;28;19920;-68
2023/11/08 09:28:48;;;;;;;;;;;;;;;;;;5091084;28;19913;-68
2023/11/08 09:31:16;;;;;;;;;;;;;;;;;;5091323;28;19963;-68
2023/11/08 09:33:42;;;;;;;;;;;;;;;;;;5082527;28;19913;-68
2023/11/08 09:36:08;;;;;;;;;;;;;;;;;;5080048;28;19985;-68
2023/11/08 09:38:34;;;;;;;;;;;;;;;;;;5089453;28;20352;-68
2023/11/08 09:41:00;;;;;;;;;;;;;;;;;;5071489;28;19913;-68
2023/11/08 09:43:26;;;;;;;;;;;;;;;;;;5086667;28;19908;-68
2023/11/08 09:45:52;;;;;;;;;;;;;;;;;;5088584;28;20357;-68
2023/11/08 09:48:18;;;;;;;;;;;;;;;;;;5086179;28;19912;-68
2023/11/08 09:50:44;;;;;;;;;;;;;;;;;;5071987;28;19994;-68
2023/11/08 09:53:09;;;;;;;;;;;;;;;;;;5075682;28;20371;-68
2023/11/08 09:55:35;;;;;;;;;;;;;;;;;;5087490;28;19999;-68
2023/11/08 09:58:02;;;;;;;;;;;;;;;;;;5072795;28;20003;-68
2023/11/08 10:00:28;;;;;;;;;;;;;;;;;;5075979;28;19919;-68
2023/11/08 10:02:54;;;;;;;;;;;;;;;;;;5087910;28;19912;-68
2023/11/08 10:05:19;;;;;;;;;;;;;;;;;;5074950;28;20006;-68
2023/11/08 10:07:45;;;;;;;;;;;;;;;;;;5079893;28;19908;-68
2023/11/08 10:10:11;;;;;;;;;;;;;;;;;;5076963;28;20318;-67
2023/11/08 10:12:37;;;;;;;;;;;;;;;;;;5081766;28;19908;-73
2023/11/08 10:15:06;;;;;;;;;;;;;;;;;;5090514;28;19920;-69
2023/11/08 10:17:32;;;;;;;;;;;;;;;;;;5080738;28;19920;-69
2023/11/08 10:19:58;;;;;;;;;;;;;;;;;;5094924;28;19908;-69
2023/11/08 10:22:24;;;;;;;;;;;;;;;;;;5091178;28;20339;-69
2023/11/08 10:24:51;;;;;;;;;;;;;;;;;;5079674;28;19912;-69
2023/11/08 10:27:17;;;;;;;;;;;;;;;;;;5081875;28;19912;-70
2023/11/08 10:29:44;;;;;;;;;;;;;;;;;;5085042;28;19919;-69
2023/11/08 10:32:10;;;;;;;;;;;;;;;;;;5082055;28;19912;-69
2023/11/08 10:34:36;;;;;;;;;;;;;;;;;;5066605;28;19919;-69
2023/11/08 10:37:02;;;;;;;;;;;;;;;;;;5077139;28;20990;-69
2023/11/08 10:39:28;;;;;;;;;;;;;;;;;;5086953;28;19951;-69
2023/11/08 10:41:54;;;;;;;;;;;;;;;;;;5061090;28;19944;-68
2023/11/08 10:44:22;;;;;;;;;;;;;;;;;;5094779;28;20426;-69
2023/11/08 10:46:48;;;;;;;;;;;;;;;;;;5063007;28;19923;-69
2023/11/08 10:49:14;;;;;;;;;;;;;;;;;;5094321;28;19912;-69
2023/11/08 10:51:40;;;;;;;;;;;;;;;;;;5084613;28;19916;-69
2023/11/08 10:54:06;;;;;;;;;;;;;;;;;;5076884;28;19941;-69
2023/11/08 10:56:32;;;;;;;;;;;;;;;;;;5077307;28;20349;-70
2023/11/08 10:58:58;;;;;;;;;;;;;;;;;;5072968;28;19912;-69
2023/11/08 11:01:26;;;;;;;;;;;;;;;;;;5076001;28;19915;-69
2023/11/08 11:03:52;;;;;;;;;;;;;;;;;;5094223;28;19919;-70
2023/11/08 11:06:18;;;;;;;;;;;;;;;;;;5061295;28;19912;-69
2023/11/08 11:08:44;;;;;;;;;;;;;;;;;;5069547;28;19913;-70
2023/11/08 11:11:10;;;;;;;;;;;;;;;;;;5058195;28;19908;-70
2023/11/08 11:13:36;;;;;;;;;;;;;;;;;;5083974;28;19912;-70
2023/11/08 11:16:03;;;;;;;;;;;;;;;;;;5077288;28;19998;-69
2023/11/08 11:18:32;;;;;;;;;;;;;;;;;;5071095;28;20313;-69
2023/11/08 11:20:58;;;;;;;;;;;;;;;;;;5090635;28;19951;-69
2023/11/08 11:23:24;;;;;;;;;;;;;;;;;;5091323;28;19951;-70
2023/11/08 11:25:50;;;;;;;;;;;;;;;;;;5079770;28;19920;-70
2023/11/08 11:28:16;;;;;;;;;;;;;;;;;;5074614;28;19920;-69
2023/11/08 11:30:42;;;;;;;;;;;;;;;;;;5081625;28;20360;-69
2023/11/08 11:33:08;;;;;;;;;;;;;;;;;;5093717;28;20272;-69
2023/11/08 11:35:34;;;;;;;;;;;;;;;;;;5076432;28;19916;-68
2023/11/08 11:38:00;;;;;;;;;;;;;;;;;;5080495;28;20020;-68
2023/11/08 11:40:26;;;;;;;;;;;;;;;;;;5099875;28;19912;-69
2023/11/08 11:42:52;;;;;;;;;;;;;;;;;;5093537;28;19915;-70
2023/11/08 11:45:18;;;;;;;;;;;;;;;;;;5093279;28;19950;-68
2023/11/08 11:47:44;;;;;;;;;;;;;;;;;;5083788;28;20016;-69
2023/11/08 11:50:10;;;;;;;;;;;;;;;;;;5076565;28;20011;-69
2023/11/08 11:52:36;;;;;;;;;;;;;;;;;;5080756;28;19961;-68
2023/11/08 11:55:04;;;;;;;;;;;;;;;;;;5088210;28;20348;-69
2023/11/08 11:57:30;;;;;;;;;;;;;;;;;;5073528;28;19912;-68
2023/11/08 11:59:56;;;;;;;;;;;;;;;;;;5089342;28;20318;-69
2023/11/08 12:02:24;;;;;;;;;;;;;;;;;;5064649;28;19923;-69
2023/11/08 12:04:50;;;;;;;;;;;;;;;;;;5075110;28;19912;-69
2023/11/08 12:07:17;;;;;;;;;;;;;;;;;;5075452;28;19959;-68
2023/11/08 12:09:43;;;;;;;;;;;;;;;;;;5062146;28;20069;-68
2023/11/08 12:12:08;;;;;;;;;;;;;;;;;;5088410;28;19952;-69
2023/11/08 12:14:34;;;;;;;;;;;;;;;;;;5089700;28;20002;-69
2023/11/08 12:17:03;;;;;;;;;;;;;;;;;;5085732;28;19982;-68
2023/11/08 12:19:30;;;;;;;;;;;;;;;;;;5079733;28;19959;-69
2023/11/08 12:21:56;;;;;;;;;;;;;;;;;;5085340;28;19912;-69
2023/11/08 12:24:22;;;;;;;;;;;;;;;;;;5092538;28;19915;-68
2023/11/08 12:26:48;;;;;;;;;;;;;;;;;;5089904;28;19924;-68
2023/11/08 12:29:16;;;;;;;;;;;;;;;;;;5081355;28;19916;-69
2023/11/08 12:31:42;;;;;;;;;;;;;;;;;;5081314;28;19916;-68
2023/11/08 12:34:07;;;;;;;;;;;;;;;;;;5087619;28;20024;-68
2023/11/08 12:36:33;;;;;;;;;;;;;;;;;;5073567;28;20054;-68
2023/11/08 12:39:00;;;;;;;;;;;;;;;;;;5086176;28;19913;-68
2023/11/08 12:41:27;;;;;;;;;;;;;;;;;;5084321;28;19965;-67
2023/11/08 12:43:53;;;;;;;;;;;;;;;;;;5082374;28;19935;-68
2023/11/08 12:46:19;;;;;;;;;;;;;;;;;;5089153;28;20287;-67
2023/11/08 12:48:45;;;;;;;;;;;;;;;;;;5080752;28;20015;-68
2023/11/08 12:51:11;;;;;;;;;;;;;;;;;;5074906;28;19920;-67
2023/11/08 12:53:38;;;;;;;;;;;;;;;;;;5090662;28;20360;-68
2023/11/08 12:56:03;;;;;;;;;;;;;;;;;;5066680;28;19917;-67
2023/11/08 12:58:30;;;;;;;;;;;;;;;;;;5073642;28;20438;-67
2023/11/08 13:00:56;;;;;;;;;;;;;;;;;;5091815;28;19908;-68
2023/11/08 13:03:29;;;;;;;;;;;;;;;;;;5082611;28;20288;-68
2023/11/08 13:05:55;;;;;;;;;;;;;;;;;;5072862;28;19912;-68
2023/11/08 13:08:21;;;;;;;;;;;;;;;;;;5079016;28;20465;-68
2023/11/08 13:10:47;;;;;;;;;;;;;;;;;;5070700;28;19921;-67
2023/11/08 13:13:13;;;;;;;;;;;;;;;;;;5070752;28;20065;-67
2023/11/08 13:15:39;;;;;;;;;;;;;;;;;;5077083;28;20474;-67
2023/11/08 13:18:07;;;;;;;;;;;;;;;;;;5079043;28;19982;-67
2023/11/08 13:20:33;;;;;;;;;;;;;;;;;;5088242;28;19999;-67
2023/11/08 13:22:59;;;;;;;;;;;;;;;;;;5079853;28;20003;-67
2023/11/08 13:25:25;;;;;;;;;;;;;;;;;;5084098;28;19963;-68
2023/11/08 13:27:51;;;;;;;;;;;;;;;;;;5078003;28;19912;-68
2023/11/08 13:30:17;;;;;;;;;;;;;;;;;;5082934;28;19959;-68
2023/11/08 13:32:43;;;;;;;;;;;;;;;;;;5089805;28;20409;-68
2023/11/08 13:35:12;;;;;;;;;;;;;;;;;;5082289;28;19912;-68
2023/11/08 13:37:38;;;;;;;;;;;;;;;;;;5075055;28;19955;-68
2023/11/08 13:40:06;;;;;;;;;;;;;;;;;;5075255;28;20002;-68
2023/11/08 13:42:33;;;;;;;;;;;;;;;;;;5058763;28;19939;-67
2023/11/08 13:44:59;;;;;;;;;;;;;;;;;;5075180;28;20284;-68
2023/11/08 13:47:25;;;;;;;;;;;;;;;;;;5075489;28;19915;-68
2023/11/08 13:49:51;;;;;;;;;;;;;;;;;;5070731;28;19909;-68
2023/11/08 13:52:16;;;;;;;;;;;;;;;;;;5069972;28;20343;-68
2023/11/08 13:54:42;;;;;;;;;;;;;;;;;;5075397;28;19923;-68
2023/11/08 13:57:09;;;;;;;;;;;;;;;;;;5073387;28;20372;-68
2023/11/08 13:59:35;;;;;;;;;;;;;;;;;;5072106;28;19928;-68
2023/11/08 14:02:01;;;;;;;;;;;;;;;;;;5069345;28;19913;-68
2023/11/08 14:04:27;;;;;;;;;;;;;;;;;;5071776;28;19909;-68
2023/11/08 14:06:53;;;;;;;;;;;;;;;;;;5063548;28;19957;-68
2023/11/08 14:09:20;;;;;;;;;;;;;;;;;;5075720;28;20382;-68
2023/11/08 14:11:46;;;;;;;;;;;;;;;;;;5075901;28;19912;-68
2023/11/08 14:14:12;;;;;;;;;;;;;;;;;;5064289;28;20046;-68
2023/11/08 14:16:38;;;;;;;;;;;;;;;;;;5074702;28;20283;-68
2023/11/08 14:19:04;;;;;;;;;;;;;;;;;;5074903;28;19912;-68
2023/11/08 14:21:30;;;;;;;;;;;;;;;;;;5071173;28;20414;-68
2023/11/08 14:23:56;;;;;;;;;;;;;;;;;;5079111;28;19916;-68
2023/11/08 14:26:22;;;;;;;;;;;;;;;;;;5074095;28;19939;-68
2023/11/08 14:28:48;;;;;;;;;;;;;;;;;;5065942;28;19913;-68
2023/11/08 14:31:14;;;;;;;;;;;;;;;;;;5071099;28;19912;-68
2023/11/08 14:33:40;;;;;;;;;;;;;;;;;;5070293;28;19948;-68
2023/11/08 14:36:06;;;;;;;;;;;;;;;;;;5071409;28;20327;-68
2023/11/08 14:38:32;;;;;;;;;;;;;;;;;;5073144;28;19913;-69
2023/11/08 14:40:58;;;;;;;;;;;;;;;;;;5067719;28;19962;-68
2023/11/08 14:43:26;;;;;;;;;;;;;;;;;;5072613;28;19951;-68
2023/11/08 14:45:52;;;;;;;;;;;;;;;;;;5072628;28;19912;-68
2023/11/08 14:48:18;;;;;;;;;;;;;;;;;;5073114;28;19919;-68
2023/11/08 14:50:44;;;;;;;;;;;;;;;;;;5073857;28;19920;-68
2023/11/08 14:53:10;;;;;;;;;;;;;;;;;;5073075;28;20384;-67
2023/11/08 14:55:37;;;;;;;;;;;;;;;;;;5068745;28;19917;-66
2023/11/08 14:58:05;;;;;;;;;;;;;;;;;;5073813;28;19920;-67
2023/11/08 15:00:31;;;;;;;;;;;;;;;;;;5070721;28;20362;-67
2023/11/08 15:02:57;;;;;;;;;;;;;;;;;;5073221;28;19909;-66
2023/11/08 15:05:23;;;;;;;;;;;;;;;;;;5079216;28;19908;-66
2023/11/08 15:07:49;;;;;;;;;;;;;;;;;;5073624;28;19996;-66
2023/11/08 15:10:15;;;;;;;;;;;;;;;;;;5075486;28;19917;-66
2023/11/08 15:12:41;;;;;;;;;;;;;;;;;;5056822;28;20343;-67
2023/11/08 15:15:07;;;;;;;;;;;;;;;;;;5064101;28;20011;-66
2023/11/08 15:17:33;;;;;;;;;;;;;;;;;;5073354;28;19916;-66
2023/11/08 15:19:59;;;;;;;;;;;;;;;;;;5070317;28;20407;-67
2023/11/08 15:22:25;;;;;;;;;;;;;;;;;;5076341;28;20291;-66
2023/11/08 15:24:51;;;;;;;;;;;;;;;;;;4995427;28;1699426;-67
2023/11/08 15:27:17;;;;;;;;;;;;;;;;;;5066053;28;20022;-66
2023/11/08 15:29:43;;;;;;;;;;;;;;;;;;5069502;28;19912;-67
2023/11/08 15:32:12;;;;;;;;;;;;;;;;;;5074190;28;19913;-66
2023/11/08 15:34:38;;;;;;;;;;;;;;;;;;5069196;28;20353;-66
2023/11/08 15:37:04;;;;;;;;;;;;;;;;;;5077869;28;19951;-66
2023/11/08 15:39:30;;;;;;;;;;;;;;;;;;5073968;28;19912;-67
2023/11/08 15:41:56;;;;;;;;;;;;;;;;;;5073721;28;20361;-66
2023/11/08 15:44:22;;;;;;;;;;;;;;;;;;5076446;28;19916;-66
2023/11/08 15:46:48;;;;;;;;;;;;;;;;;;5066632;28;19923;-66
2023/11/08 15:49:16;;;;;;;;;;;;;;;;;;5077735;28;19918;-66
2023/11/08 15:51:42;;;;;;;;;;;;;;;;;;5072293;28;19959;-67
2023/11/08 15:54:08;;;;;;;;;;;;;;;;;;5072074;28;20358;-66
2023/11/08 15:56:34;;;;;;;;;;;;;;;;;;5061118;28;19923;-66
2023/11/08 15:59:00;;;;;;;;;;;;;;;;;;5067731;28;20380;-66
2023/11/08 16:01:25;;;;;;;;;;;;;;;;;;5071982;28;20003;-67
2023/11/08 16:03:51;;;;;;;;;;;;;;;;;;5071355;28;19959;-67
2023/11/08 16:06:17;;;;;;;;;;;;;;;;;;5071255;28;19955;-67
2023/11/08 16:08:43;;;;;;;;;;;;;;;;;;5067958;28;19921;-67
2023/11/08 16:11:09;;;;;;;;;;;;;;;;;;5070224;28;19955;-67
2023/11/08 16:13:35;;;;;;;;;;;;;;;;;;5069582;28;20291;-67
2023/11/08 16:16:01;;;;;;;;;;;;;;;;;;5067746;28;19916;-66
2023/11/08 16:18:27;;;;;;;;;;;;;;;;;;5072467;28;19994;-66
2023/11/08 16:20:53;;;;;;;;;;;;;;;;;;5070621;28;20045;-67
2023/11/08 16:23:22;;;;;;;;;;;;;;;;;;5070778;28;20354;-67
2023/11/08 16:25:48;;;;;;;;;;;;;;;;;;5073405;28;19920;-67
2023/11/08 16:28:14;;;;;;;;;;;;;;;;;;5073219;28;20042;-66
2023/11/08 16:30:40;;;;;;;;;;;;;;;;;;5072966;28;19920;-66
2023/11/08 16:33:07;;;;;;;;;;;;;;;;;;5073913;28;20361;-66
2023/11/08 16:35:32;;;;;;;;;;;;;;;;;;5071096;28;19916;-67
2023/11/08 16:37:58;;;;;;;;;;;;;;;;;;5064374;28;19958;-67